Terminal Aerodrome Forecast
Issued by NWS Tampa Bay Area, FL

Current Version | Previous Version | Text Only | Print | Product List | Glossary On
Versions: 1 2 3 4 5 6 7 8 9 10 11 12 13 14 15 16
000
FTUS42 KTBW 282022 AAA
TAFFMY
TAF AMD
KFMY 282022Z 2820/2918 08012G22KT P6SM VCTS BKN035CB BKN150
      TEMPO 2820/2821 VRB15G30KT 2SM TSRA BKN030CB
     FM290100 08007KT P6SM FEW025 BKN250
     FM291400 08010G18KT P6SM SCT035 BKN150=

USA.gov is the U.S. government's official web portal to all federal, state and local government web resources and services.